Main page
METAR-TAF:

METAR-TAF

Airports :

Växjö Småland Airport

Växjö, Sweden

latitude: 56-51N, longitude: 014-50E, elevation: 199 m

Current weather observation

The report was made 25 minutes ago, at 09:50 UTC
Wind 4 kt from the Northwest, varying between West/Southwest and North
Temperature 24°C
Humidity 54%
Pressure 1009 hPa
Visibility 10 km or more
no clouds below 1500 m and no cumulonimbus

METAR: ESMX 220950Z 32004KT 240V010 CAVOK 24/14 Q1009

Time: 12:15 (10:15 UTC)

Forecast

The report was made 1 hour and 45 minutes ago, at 08:30 UTC
Forecast valid from 22 at 09 UTC to 22 at 18 UTC
Wind 5 kt from the North
Visibility 10 km or more
no clouds below 1500 m and no cumulonimbus
Temporary
from 22 at 11 UTC to 22 at 16 UTC
Broken clouds at a height of 5000 ft, Cumulonimbus.
thunderstorm, rain showers

TAF: ESMX 220830Z 2209/2218 35005KT CAVOK TEMPO 2211/2216 TS SHRA BKN050CB

Weather observations and forecasts of more than 4000 airports (METAR and TAF reports).

The available stations are represented by yellow and red dots on the map.

Hover mouse over dot to see the name of the station.

Then click to see weather observations and forecasts.

To change the map : click on the green buttons with a black cross to zoom in, on the green button with a dash to zoom out, or on the green arrows for adjacent maps.


METAR-TAF: